sensor_id;sensor_type;location;lat;lon;timestamp;pressure;altitude;pressure_sealevel;temperature;humidity
62152;BME280;48139;47.474;19.034;2023-04-27T03:44:14;100680.16;;;4.39;98.64
62152;BME280;48139;47.474;19.034;2023-04-27T03:47:18;100680.16;;;4.39;98.64
62152;BME280;48139;47.474;19.034;2023-04-27T03:50:21;100696.44;;;3.94;100.00
62152;BME280;48139;47.474;19.034;2023-04-27T03:53:24;100691.28;;;3.92;100.00
62152;BME280;48139;47.474;19.034;2023-04-27T03:56:26;100698.97;;;3.98;100.00
62152;BME280;48139;47.474;19.034;2023-04-27T03:59:30;100703.22;;;4.04;100.00
62152;BME280;48139;47.474;19.034;2023-04-27T04:02:32;100704.97;;;4.02;100.00
62152;BME280;48139;47.474;19.034;2023-04-27T04:05:35;100713.50;;;4.10;100.00
62152;BME280;48139;47.474;19.034;2023-04-27T04:08:39;100698.78;;;4.11;100.00
62152;BME280;48139;47.474;19.034;2023-04-27T04:11:42;100706.59;;;4.09;100.00
62152;BME280;48139;47.474;19.034;2023-04-27T04:14:45;100723.78;;;4.13;99.36
62152;BME280;48139;47.474;19.034;2023-04-27T04:17:50;100722.81;;;4.22;100.00
62152;BME280;48139;47.474;19.034;2023-04-27T04:20:53;100726.94;;;4.35;99.94
62152;BME280;48139;47.474;19.034;2023-04-27T04:23:56;100732.13;;;4.35;97.31
62152;BME280;48139;47.474;19.034;2023-04-27T04:26:59;100734.53;;;4.44;96.19
62152;BME280;48139;47.474;19.034;2023-04-27T04:30:02;100725.75;;;4.56;96.85
62152;BME280;48139;47.474;19.034;2023-04-27T04:33:08;100728.13;;;4.68;96.29
62152;BME280;48139;47.474;19.034;2023-04-27T04:36:14;100729.66;;;4.78;96.20
62152;BME280;48139;47.474;19.034;2023-04-27T04:39:18;100730.56;;;4.75;97.09
62152;BME280;48139;47.474;19.034;2023-04-27T04:42:23;100728.69;;;4.85;97.04
62152;BME280;48139;47.474;19.034;2023-04-27T04:45:26;100740.69;;;4.91;97.26
62152;BME280;48139;47.474;19.034;2023-04-27T04:48:31;100740.31;;;5.10;97.16
62152;BME280;48139;47.474;19.034;2023-04-27T04:51:34;100738.34;;;5.24;96.89
62152;BME280;48139;47.474;19.034;2023-04-27T04:54:37;100741.47;;;5.40;96.14
62152;BME280;48139;47.474;19.034;2023-04-27T04:57:40;100739.59;;;5.48;94.76
62152;BME280;48139;47.474;19.034;2023-04-27T05:00:42;100733.06;;;5.69;93.26
62152;BME280;48139;47.474;19.034;2023-04-27T05:03:45;100739.81;;;5.79;93.66
62152;BME280;48139;47.474;19.034;2023-04-27T05:06:48;100746.41;;;5.95;91.77
62152;BME280;48139;47.474;19.034;2023-04-27T05:09:51;100744.25;;;6.14;91.07
62152;BME280;48139;47.474;19.034;2023-04-27T05:12:54;100749.03;;;6.32;83.15
62152;BME280;48139;47.474;19.034;2023-04-27T05:15:56;100751.25;;;6.49;84.52
62152;BME280;48139;47.474;19.034;2023-04-27T05:18:59;100757.59;;;6.73;80.86
62152;BME280;48139;47.474;19.034;2023-04-27T05:22:01;100756.97;;;6.97;78.17
62152;BME280;48139;47.474;19.034;2023-04-27T05:25:04;100761.56;;;7.51;73.15
62152;BME280;48139;47.474;19.034;2023-04-27T05:28:08;100761.97;;;7.97;68.04
62152;BME280;48139;47.474;19.034;2023-04-27T05:31:11;100767.06;;;8.00;69.76
62152;BME280;48139;47.474;19.034;2023-04-27T05:34:13;100769.56;;;8.05;66.84
62152;BME280;48139;47.474;19.034;2023-04-27T05:37:16;100768.66;;;8.88;67.87
62152;BME280;48139;47.474;19.034;2023-04-27T05:40:18;100766.63;;;10.61;59.19
62152;BME280;48139;47.474;19.034;2023-04-27T05:43:22;100765.47;;;10.68;55.95
62152;BME280;48139;47.474;19.034;2023-04-27T05:46:24;100771.47;;;10.26;56.04
62152;BME280;48139;47.474;19.034;2023-04-27T05:49:27;100768.25;;;10.20;59.25
62152;BME280;48139;47.474;19.034;2023-04-27T05:52:30;100770.50;;;10.29;56.13
62152;BME280;48139;47.474;19.034;2023-04-27T05:55:33;100771.28;;;10.31;50.66
62152;BME280;48139;47.474;19.034;2023-04-27T05:58:37;100780.91;;;10.07;49.33
62152;BME280;48139;47.474;19.034;2023-04-27T06:01:39;100786.37;;;10.01;48.37
62152;BME280;48139;47.474;19.034;2023-04-27T06:04:43;100774.91;;;10.28;48.73
62152;BME280;48139;47.474;19.034;2023-04-27T06:07:46;100786.28;;;10.71;47.75
62152;BME280;48139;47.474;19.034;2023-04-27T06:10:51;100782.34;;;10.81;46.70
62152;BME280;48139;47.474;19.034;2023-04-27T06:13:53;100785.47;;;10.90;46.46
62152;BME280;48139;47.474;19.034;2023-04-27T06:16:56;100784.09;;;10.60;45.42
62152;BME280;48139;47.474;19.034;2023-04-27T06:19:59;100787.72;;;10.56;45.40
62152;BME280;48139;47.474;19.034;2023-04-27T06:23:01;100789.63;;;10.52;44.63
62152;BME280;48139;47.474;19.034;2023-04-27T06:26:04;100792.06;;;10.79;44.38
62152;BME280;48139;47.474;19.034;2023-04-27T06:29:07;100794.50;;;10.83;43.75
62152;BME280;48139;47.474;19.034;2023-04-27T06:32:10;100796.03;;;11.09;43.63
62152;BME280;48139;47.474;19.034;2023-04-27T06:35:13;100794.47;;;11.05;42.95
62152;BME280;48139;47.474;19.034;2023-04-27T06:38:16;100800.03;;;11.18;42.52
62152;BME280;48139;47.474;19.034;2023-04-27T06:41:19;100804.09;;;11.25;41.31
62152;BME280;48139;47.474;19.034;2023-04-27T06:44:22;100797.97;;;11.24;41.33
62152;BME280;48139;47.474;19.034;2023-04-27T06:47:25;100796.75;;;11.13;40.95
62152;BME280;48139;47.474;19.034;2023-04-27T06:50:27;100798.94;;;10.81;42.61
62152;BME280;48139;47.474;19.034;2023-04-27T06:53:32;100797.72;;;10.68;44.18
62152;BME280;48139;47.474;19.034;2023-04-27T06:56:34;100793.97;;;10.96;43.97
62152;BME280;48139;47.474;19.034;2023-04-27T06:59:38;100796.63;;;11.16;43.76
62152;BME280;48139;47.474;19.034;2023-04-27T07:02:40;100799.84;;;11.43;41.95
62152;BME280;48139;47.474;19.034;2023-04-27T07:05:44;100793.06;;;11.57;40.29
62152;BME280;48139;47.474;19.034;2023-04-27T07:08:46;100799.16;;;11.58;40.65
62152;BME280;48139;47.474;19.034;2023-04-27T07:11:49;100805.59;;;11.51;41.19
62152;BME280;48139;47.474;19.034;2023-04-27T07:14:52;100808.59;;;11.62;40.08
62152;BME280;48139;47.474;19.034;2023-04-27T07:17:54;100805.56;;;11.71;39.80
62152;BME280;48139;47.474;19.034;2023-04-27T07:20:57;100804.97;;;11.85;39.47
62152;BME280;48139;47.474;19.034;2023-04-27T07:23:59;100804.06;;;11.86;40.76
62152;BME280;48139;47.474;19.034;2023-04-27T07:27:02;100809.91;;;11.92;39.67
62152;BME280;48139;47.474;19.034;2023-04-27T07:30:08;100814.19;;;11.93;39.68
62152;BME280;48139;47.474;19.034;2023-04-27T07:33:13;100819.00;;;12.23;38.82
62152;BME280;48139;47.474;19.034;2023-04-27T07:36:17;100817.41;;;12.19;39.40
62152;BME280;48139;47.474;19.034;2023-04-27T07:39:19;100821.47;;;12.26;39.57
62152;BME280;48139;47.474;19.034;2023-04-27T07:42:23;100821.41;;;12.27;37.90
62152;BME280;48139;47.474;19.034;2023-04-27T07:45:26;100819.81;;;12.61;37.68
62152;BME280;48139;47.474;19.034;2023-04-27T07:48:35;100820.75;;;12.77;40.39
62152;BME280;48139;47.474;19.034;2023-04-27T07:51:38;100811.97;;;12.95;35.95
62152;BME280;48139;47.474;19.034;2023-04-27T07:54:41;100814.97;;;12.87;34.25
62152;BME280;48139;47.474;19.034;2023-04-27T07:57:44;100813.97;;;12.73;35.88
62152;BME280;48139;47.474;19.034;2023-04-27T08:00:47;100809.47;;;12.75;35.13
62152;BME280;48139;47.474;19.034;2023-04-27T08:03:50;100816.75;;;12.51;35.75
62152;BME280;48139;47.474;19.034;2023-04-27T08:06:52;100814.72;;;12.39;35.80
62152;BME280;48139;47.474;19.034;2023-04-27T08:09:56;100807.78;;;12.74;35.20
62152;BME280;48139;47.474;19.034;2023-04-27T08:12:58;100810.53;;;12.71;34.97
62152;BME280;48139;47.474;19.034;2023-04-27T08:16:01;100809.50;;;13.09;35.53
62152;BME280;48139;47.474;19.034;2023-04-27T08:19:04;100816.63;;;13.24;34.98
62152;BME280;48139;47.474;19.034;2023-04-27T08:22:07;100809.53;;;13.26;36.28
62152;BME280;48139;47.474;19.034;2023-04-27T08:25:10;100814.47;;;13.32;36.68
62152;BME280;48139;47.474;19.034;2023-04-27T08:28:14;100810.91;;;13.51;33.60
62152;BME280;48139;47.474;19.034;2023-04-27T08:31:16;100813.66;;;13.65;33.25
62152;BME280;48139;47.474;19.034;2023-04-27T08:34:19;100805.31;;;13.74;32.11
62152;BME280;48139;47.474;19.034;2023-04-27T08:37:22;100803.34;;;13.78;31.01
62152;BME280;48139;47.474;19.034;2023-04-27T08:40:24;100810.84;;;13.85;31.50
62152;BME280;48139;47.474;19.034;2023-04-27T08:43:32;100808.75;;;13.74;30.91
62152;BME280;48139;47.474;19.034;2023-04-27T08:46:35;100815.16;;;13.53;32.40
62152;BME280;48139;47.474;19.034;2023-04-27T08:49:38;100806.66;;;13.31;33.25
62152;BME280;48139;47.474;19.034;2023-04-27T08:52:44;100809.47;;;13.78;32.68
62152;BME280;48139;47.474;19.034;2023-04-27T08:55:48;100810.06;;;13.83;32.78
62152;BME280;48139;47.474;19.034;2023-04-27T08:58:50;100810.75;;;13.87;32.24
62152;BME280;48139;47.474;19.034;2023-04-27T09:01:53;100809.72;;;13.73;32.61
62152;BME280;48139;47.474;19.034;2023-04-27T09:04:56;100805.66;;;13.99;33.15
62152;BME280;48139;47.474;19.034;2023-04-27T09:08:01;100804.66;;;14.02;34.29
62152;BME280;48139;47.474;19.034;2023-04-27T09:11:06;100801.94;;;14.03;33.10
62152;BME280;48139;47.474;19.034;2023-04-27T09:14:20;100800.47;;;14.46;32.08
62152;BME280;48139;47.474;19.034;2023-04-27T09:17:24;100801.34;;;13.98;33.14
62152;BME280;48139;47.474;19.034;2023-04-27T09:20:28;100792.56;;;13.82;33.84
62152;BME280;48139;47.474;19.034;2023-04-27T09:23:34;100791.41;;;13.55;32.56
62152;BME280;48139;47.474;19.034;2023-04-27T09:26:38;100794.50;;;13.46;34.12
62152;BME280;48139;47.474;19.034;2023-04-27T09:29:41;100792.09;;;13.91;34.76
62152;BME280;48139;47.474;19.034;2023-04-27T09:32:55;100791.19;;;14.24;33.23
62152;BME280;48139;47.474;19.034;2023-04-27T09:36:03;100789.97;;;13.98;33.08
62152;BME280;48139;47.474;19.034;2023-04-27T09:39:06;100776.03;;;13.63;34.10
62152;BME280;48139;47.474;19.034;2023-04-27T09:42:11;100772.28;;;14.00;32.07
62152;BME280;48139;47.474;19.034;2023-04-27T09:45:14;100771.72;;;14.10;31.64
62152;BME280;48139;47.474;19.034;2023-04-27T09:48:17;100767.84;;;13.85;31.78
62152;BME280;48139;47.474;19.034;2023-04-27T09:51:20;100763.44;;;13.85;32.13
62152;BME280;48139;47.474;19.034;2023-04-27T09:54:26;100769.13;;;13.93;31.67
62152;BME280;48139;47.474;19.034;2023-04-27T09:57:36;100767.19;;;13.97;32.89
62152;BME280;48139;47.474;19.034;2023-04-27T10:04:07;100769.03;;;13.79;35.46
62152;BME280;48139;47.474;19.034;2023-04-27T10:07:14;100769.31;;;13.57;33.67
62152;BME280;48139;47.474;19.034;2023-04-27T10:15:11;100762.87;;;14.11;32.05
62152;BME280;48139;47.474;19.034;2023-04-27T10:18:24;100753.53;;;14.53;32.71
62152;BME280;48139;47.474;19.034;2023-04-27T10:21:28;100754.28;;;14.39;32.13
62152;BME280;48139;47.474;19.034;2023-04-27T10:24:39;100751.03;;;14.66;31.59
62152;BME280;48139;47.474;19.034;2023-04-27T10:27:42;100751.59;;;14.86;31.17
62152;BME280;48139;47.474;19.034;2023-04-27T10:30:46;100746.50;;;15.42;30.71
62152;BME280;48139;47.474;19.034;2023-04-27T10:33:50;100744.50;;;15.88;29.65
62152;BME280;48139;47.474;19.034;2023-04-27T10:37:04;100749.25;;;15.97;28.75
62152;BME280;48139;47.474;19.034;2023-04-27T10:40:09;100748.19;;;16.40;29.46
62152;BME280;48139;47.474;19.034;2023-04-27T10:43:16;100739.75;;;16.48;29.57
62152;BME280;48139;47.474;19.034;2023-04-27T10:46:19;100744.06;;;15.53;29.82
62152;BME280;48139;47.474;19.034;2023-04-27T10:49:22;100744.25;;;14.91;30.93
62152;BME280;48139;47.474;19.034;2023-04-27T10:52:25;100741.69;;;14.44;32.05
62152;BME280;48139;47.474;19.034;2023-04-27T10:55:28;100746.03;;;14.30;32.15
62152;BME280;48139;47.474;19.034;2023-04-27T10:58:33;100742.78;;;14.25;32.59
62152;BME280;48139;47.474;19.034;2023-04-27T11:01:50;100742.28;;;14.02;31.90
62152;BME280;48139;47.474;19.034;2023-04-27T11:04:54;100732.22;;;14.72;32.64
62152;BME280;48139;47.474;19.034;2023-04-27T11:08:09;100735.13;;;14.97;32.60
62152;BME280;48139;47.474;19.034;2023-04-27T11:11:15;100737.31;;;15.05;31.16
62152;BME280;48139;47.474;19.034;2023-04-27T11:14:20;100729.84;;;14.67;31.24
62152;BME280;48139;47.474;19.034;2023-04-27T11:17:30;100731.66;;;14.51;32.00
62152;BME280;48139;47.474;19.034;2023-04-27T11:20:33;100735.34;;;14.17;34.39
62152;BME280;48139;47.474;19.034;2023-04-27T11:23:37;100732.69;;;14.01;32.82
62152;BME280;48139;47.474;19.034;2023-04-27T11:26:41;100723.41;;;13.94;33.64
62152;BME280;48139;47.474;19.034;2023-04-27T11:29:44;100729.28;;;14.46;32.19
62152;BME280;48139;47.474;19.034;2023-04-27T11:32:47;100721.84;;;14.99;32.82
62152;BME280;48139;47.474;19.034;2023-04-27T11:35:50;100725.37;;;15.42;30.83
62152;BME280;48139;47.474;19.034;2023-04-27T11:38:56;100727.53;;;15.49;30.87
62152;BME280;48139;47.474;19.034;2023-04-27T11:42:16;100716.13;;;15.77;30.95
62152;BME280;48139;47.474;19.034;2023-04-27T11:45:24;100724.38;;;15.72;32.92
62152;BME280;48139;47.474;19.034;2023-04-27T11:48:28;100719.25;;;15.41;30.18
62152;BME280;48139;47.474;19.034;2023-04-27T11:51:32;100726.59;;;15.36;31.79
62152;BME280;48139;47.474;19.034;2023-04-27T11:54:36;100729.63;;;15.30;30.55
62152;BME280;48139;47.474;19.034;2023-04-27T11:57:39;100721.47;;;15.19;31.83
62152;BME280;48139;47.474;19.034;2023-04-27T12:00:42;100725.03;;;15.18;32.54
62152;BME280;48139;47.474;19.034;2023-04-27T12:03:45;100724.13;;;15.33;32.50
62152;BME280;48139;47.474;19.034;2023-04-27T12:06:47;100724.91;;;15.63;31.68
62152;BME280;48139;47.474;19.034;2023-04-27T12:09:50;100721.87;;;15.84;29.33
62152;BME280;48139;47.474;19.034;2023-04-27T12:12:52;100711.16;;;16.13;31.07
62152;BME280;48139;47.474;19.034;2023-04-27T12:15:55;100715.91;;;15.94;30.18
62152;BME280;48139;47.474;19.034;2023-04-27T12:19:00;100718.59;;;15.23;30.93
62152;BME280;48139;47.474;19.034;2023-04-27T12:22:03;100719.13;;;15.14;31.81
62152;BME280;48139;47.474;19.034;2023-04-27T12:25:06;100706.69;;;15.16;30.78
62152;BME280;48139;47.474;19.034;2023-04-27T12:28:09;100709.78;;;15.09;30.54
62152;BME280;48139;47.474;19.034;2023-04-27T12:31:14;100715.19;;;15.21;31.18
62152;BME280;48139;47.474;19.034;2023-04-27T12:34:17;100713.66;;;15.31;31.26
62152;BME280;48139;47.474;19.034;2023-04-27T12:37:20;100708.59;;;15.43;31.72
62152;BME280;48139;47.474;19.034;2023-04-27T12:40:23;100708.59;;;15.43;33.32
62152;BME280;48139;47.474;19.034;2023-04-27T12:43:25;100718.44;;;15.55;31.85
62152;BME280;48139;47.474;19.034;2023-04-27T12:46:28;100719.50;;;15.51;32.09
62152;BME280;48139;47.474;19.034;2023-04-27T12:49:31;100709.66;;;15.54;30.37
62152;BME280;48139;47.474;19.034;2023-04-27T12:52:33;100712.81;;;15.45;31.82
62152;BME280;48139;47.474;19.034;2023-04-27T12:55:36;100716.56;;;15.13;32.70
62152;BME280;48139;47.474;19.034;2023-04-27T12:58:39;100713.53;;;14.90;31.08
62152;BME280;48139;47.474;19.034;2023-04-27T13:01:42;100712.03;;;15.01;31.29
62152;BME280;48139;47.474;19.034;2023-04-27T13:04:47;100716.19;;;15.05;30.88
62152;BME280;48139;47.474;19.034;2023-04-27T13:07:51;100718.47;;;15.25;31.21
62152;BME280;48139;47.474;19.034;2023-04-27T13:10:54;100718.75;;;15.20;31.89
62152;BME280;48139;47.474;19.034;2023-04-27T13:13:56;100714.94;;;14.96;32.21
62152;BME280;48139;47.474;19.034;2023-04-27T13:17:00;100713.41;;;14.48;32.69
62152;BME280;48139;47.474;19.034;2023-04-27T13:20:03;100713.38;;;14.32;32.59
62152;BME280;48139;47.474;19.034;2023-04-27T13:23:07;100718.47;;;14.51;33.79
62152;BME280;48139;47.474;19.034;2023-04-27T13:26:10;100713.06;;;14.68;31.42
62152;BME280;48139;47.474;19.034;2023-04-27T13:29:13;100706.34;;;14.78;31.29
62152;BME280;48139;47.474;19.034;2023-04-27T13:32:16;100698.28;;;15.10;33.30
62152;BME280;48139;47.474;19.034;2023-04-27T13:35:19;100707.38;;;15.34;31.87
62152;BME280;48139;47.474;19.034;2023-04-27T13:38:22;100710.75;;;15.50;31.32
62152;BME280;48139;47.474;19.034;2023-04-27T13:41:25;100711.50;;;15.38;30.69
62152;BME280;48139;47.474;19.034;2023-04-27T13:44:28;100714.53;;;15.46;32.73
62152;BME280;48139;47.474;19.034;2023-04-27T13:47:31;100714.44;;;15.62;32.82
62152;BME280;48139;47.474;19.034;2023-04-27T13:50:38;100709.28;;;15.60;31.52
62152;BME280;48139;47.474;19.034;2023-04-27T13:53:40;100723.84;;;15.09;31.61
62152;BME280;48139;47.474;19.034;2023-04-27T13:56:43;100709.75;;;14.94;30.73
62152;BME280;48139;47.474;19.034;2023-04-27T13:59:46;100706.78;;;15.15;29.64
62152;BME280;48139;47.474;19.034;2023-04-27T14:02:48;100700.28;;;15.34;29.88
62152;BME280;48139;47.474;19.034;2023-04-27T14:05:51;100703.19;;;15.16;29.91
62152;BME280;48139;47.474;19.034;2023-04-27T14:08:54;100704.25;;;15.27;30.22
62152;BME280;48139;47.474;19.034;2023-04-27T14:11:57;100712.31;;;15.54;30.32
62152;BME280;48139;47.474;19.034;2023-04-27T14:15:00;100721.50;;;15.76;30.94
62152;BME280;48139;47.474;19.034;2023-04-27T14:18:03;100716.62;;;15.69;29.19
62152;BME280;48139;47.474;19.034;2023-04-27T14:21:07;100713.00;;;15.28;30.65
62152;BME280;48139;47.474;19.034;2023-04-27T14:24:10;100713.75;;;15.16;30.71
62152;BME280;48139;47.474;19.034;2023-04-27T14:27:14;100720.94;;;15.28;28.83
62152;BME280;48139;47.474;19.034;2023-04-27T14:30:17;100716.31;;;15.46;29.52
62152;BME280;48139;47.474;19.034;2023-04-27T14:33:19;100724.44;;;15.43;29.86
62152;BME280;48139;47.474;19.034;2023-04-27T14:36:22;100719.69;;;15.19;29.80
62152;BME280;48139;47.474;19.034;2023-04-27T14:39:24;100726.34;;;14.97;30.94
62152;BME280;48139;47.474;19.034;2023-04-27T14:42:30;100727.47;;;14.92;31.26
62152;BME280;48139;47.474;19.034;2023-04-27T14:45:32;100725.69;;;15.07;32.11
62152;BME280;48139;47.474;19.034;2023-04-27T14:48:53;100717.25;;;15.30;30.01
62152;BME280;48139;47.474;19.034;2023-04-27T14:51:55;100715.56;;;15.44;31.82
62152;BME280;48139;47.474;19.034;2023-04-27T14:54:58;100719.25;;;15.41;30.43
62152;BME280;48139;47.474;19.034;2023-04-27T14:58:01;100720.00;;;15.29;29.95
62152;BME280;48139;47.474;19.034;2023-04-27T15:01:05;100728.84;;;15.28;29.97
62152;BME280;48139;47.474;19.034;2023-04-27T15:04:11;100723.62;;;15.12;30.38
62152;BME280;48139;47.474;19.034;2023-04-27T15:07:14;100727.53;;;15.21;30.77
62152;BME280;48139;47.474;19.034;2023-04-27T15:10:16;100725.53;;;15.39;31.49
62152;BME280;48139;47.474;19.034;2023-04-27T15:13:19;100733.00;;;15.46;30.45
62152;BME280;48139;47.474;19.034;2023-04-27T15:16:21;100730.53;;;15.43;29.88
62152;BME280;48139;47.474;19.034;2023-04-27T15:19:24;100725.84;;;15.34;30.28
62152;BME280;48139;47.474;19.034;2023-04-27T15:22:27;100727.69;;;15.18;31.41
62152;BME280;48139;47.474;19.034;2023-04-27T15:25:30;100733.09;;;15.16;31.71
62152;BME280;48139;47.474;19.034;2023-04-27T15:28:32;100723.06;;;15.07;30.99
62152;BME280;48139;47.474;19.034;2023-04-27T15:31:35;100722.84;;;14.96;30.82
62152;BME280;48139;47.474;19.034;2023-04-27T15:34:38;100726.38;;;15.11;31.08
62152;BME280;48139;47.474;19.034;2023-04-27T15:37:44;100729.84;;;14.97;31.92
62152;BME280;48139;47.474;19.034;2023-04-27T15:40:46;100724.44;;;14.84;31.36
62152;BME280;48139;47.474;19.034;2023-04-27T15:43:49;100727.56;;;14.91;31.86
62152;BME280;48139;47.474;19.034;2023-04-27T15:46:52;100717.75;;;14.79;32.77
62152;BME280;48139;47.474;19.034;2023-04-27T15:49:55;100723.94;;;14.78;32.10
62152;BME280;48139;47.474;19.034;2023-04-27T15:52:59;100724.72;;;14.80;31.31
62152;BME280;48139;47.474;19.034;2023-04-27T15:56:02;100718.94;;;14.73;31.37
62152;BME280;48139;47.474;19.034;2023-04-27T15:59:04;100723.44;;;14.71;32.62
62152;BME280;48139;47.474;19.034;2023-04-27T16:02:08;100721.66;;;14.72;31.28
62152;BME280;48139;47.474;19.034;2023-04-27T16:05:10;100724.81;;;14.63;31.25
